Time;durP1;ratioP1;P1;durP2;ratioP2;P2;SDS_P1;SDS_P2;PMS_P1;PMS_P2;Temp;Humidity;BMP_temperature;BMP_pressure;BME280_temperature;BME280_humidity;BME280_pressure;Samples;Min_cycle;Max_cycle;Signal;HPM_P1;HPM_P2
2021/12/11 00:00:22;;;;;;;294.23;59.97;;;0.20;99.90;;;;;;5176415;28;20615;-51
2021/12/11 00:03:04;;;;;;;182.37;47.30;;;0.20;99.90;;;;;;5180991;28;20428;-50
2021/12/11 00:05:37;;;;;;;271.20;57.17;;;0.20;99.90;;;;;;5183054;28;20432;-51
2021/12/11 00:08:10;;;;;;;210.30;51.67;;;0.20;99.90;;;;;;5186160;28;20520;-53
2021/12/11 00:10:45;;;;;;;206.03;53.20;;;0.20;99.90;;;;;;5182013;28;20427;-52
2021/12/11 00:13:22;;;;;;;234.33;55.90;;;0.30;99.90;;;;;;5180969;28;20446;-52
2021/12/11 00:15:53;;;;;;;187.07;48.93;;;0.30;99.90;;;;;;5178972;28;20462;-52
2021/12/11 00:18:27;;;;;;;250.40;58.40;;;0.20;99.90;;;;;;5176400;28;20971;-52
2021/12/11 00:21:06;;;;;;;247.57;53.27;;;0.20;99.90;;;;;;5180057;28;20451;-51
2021/12/11 00:23:41;;;;;;;169.70;45.63;;;0.20;99.90;;;;;;5185678;28;20908;-51
2021/12/11 00:26:12;;;;;;;132.07;40.53;;;0.30;99.90;;;;;;5200799;28;20427;-52
2021/12/11 00:28:50;;;;;;;278.00;56.27;;;0.40;99.90;;;;;;5194918;28;20490;-51
2021/12/11 00:31:20;;;;;;;180.10;47.80;;;0.30;99.90;;;;;;5185345;28;20431;-51
2021/12/11 00:33:51;;;;;;;150.07;42.40;;;0.40;99.90;;;;;;5183020;28;20445;-51
2021/12/11 00:36:31;;;;;;;172.53;44.70;;;0.40;99.90;;;;;;5182362;28;20292;-51
2021/12/11 00:39:11;;;;;;;174.07;44.27;;;0.40;99.90;;;;;;5175331;28;20471;-52
2021/12/11 00:41:49;;;;;;;249.33;55.10;;;0.40;99.90;;;;;;5178415;28;20915;-52
2021/12/11 00:44:37;;;;;;;165.83;42.33;;;0.50;99.90;;;;;;5181234;28;20447;-52
2021/12/11 00:47:12;;;;;;;148.83;43.63;;;0.50;99.90;;;;;;5172382;28;20921;-51
2021/12/11 00:49:51;;;;;;;197.37;44.93;;;0.50;99.90;;;;;;5175127;28;20640;-52
2021/12/11 00:52:33;;;;;;;193.27;49.07;;;0.40;99.90;;;;;;5183694;28;20855;-52
2021/12/11 00:55:21;;;;;;;178.73;51.10;;;0.40;99.90;;;;;;5186386;28;20419;-51
2021/12/11 00:58:05;;;;;;;146.93;39.37;;;0.50;99.90;;;;;;5178417;28;20438;-52
2021/12/11 01:00:44;;;;;;;218.03;49.40;;;0.50;99.90;;;;;;5184061;28;20450;-50
2021/12/11 01:03:19;;;;;;;86.77;31.53;;;0.50;99.90;;;;;;5172280;28;20774;-52
2021/12/11 01:05:53;;;;;;;197.20;52.27;;;0.50;99.90;;;;;;5176625;28;20451;-51
2021/12/11 01:08:32;;;;;;;184.27;47.20;;;0.50;99.90;;;;;;5183600;28;20466;-51
2021/12/11 01:11:17;;;;;;;121.93;37.83;;;0.60;99.90;;;;;;5170844;28;20431;-51
2021/12/11 01:14:07;;;;;;;127.13;40.77;;;0.50;99.90;;;;;;5181244;28;20893;-51
2021/12/11 01:16:40;;;;;;;185.43;48.53;;;0.60;99.90;;;;;;5183267;28;20442;-52
2021/12/11 01:19:17;;;;;;;94.80;33.60;;;0.60;99.90;;;;;;5183958;28;20454;-50
2021/12/11 01:21:59;;;;;;;137.77;42.03;;;0.50;99.90;;;;;;5184687;28;20461;-51
2021/12/11 01:24:44;;;;;;;94.47;34.90;;;0.60;99.90;;;;;;5180739;28;20982;-50
2021/12/11 01:27:19;;;;;;;90.13;32.47;;;0.60;99.90;;;;;;5178743;28;20463;-52
2021/12/11 01:29:55;;;;;;;142.77;42.53;;;0.60;99.90;;;;;;5178419;28;20474;-51
2021/12/11 01:32:29;;;;;;;95.80;35.27;;;0.60;99.90;;;;;;5180205;28;20438;-51
2021/12/11 01:35:04;;;;;;;89.20;32.80;;;0.70;99.90;;;;;;5205123;28;20454;-52
2021/12/11 01:37:36;;;;;;;102.47;32.80;;;0.70;99.90;;;;;;5185849;28;20886;-52
2021/12/11 01:40:10;;;;;;;109.43;39.73;;;0.70;99.90;;;;;;5180784;28;20550;-50
2021/12/11 01:42:41;;;;;;;130.30;36.33;;;0.70;99.90;;;;;;5164665;28;20446;-51
2021/12/11 01:45:14;;;;;;;129.23;36.70;;;0.60;99.90;;;;;;5179792;28;20818;-51
2021/12/11 01:47:47;;;;;;;89.93;35.27;;;0.60;99.90;;;;;;5172304;28;20436;-50
2021/12/11 01:50:32;;;;;;;84.80;32.40;;;0.70;99.90;;;;;;5176031;28;20897;-50
2021/12/11 01:53:11;;;;;;;93.37;34.97;;;0.70;99.90;;;;;;5180878;28;20482;-50
2021/12/11 01:55:45;;;;;;;113.53;35.63;;;0.70;99.90;;;;;;5194784;28;20470;-50
2021/12/11 01:58:26;;;;;;;90.43;34.00;;;0.70;99.90;;;;;;5183144;28;20474;-51
2021/12/11 02:01:02;;;;;;;95.93;31.80;;;0.70;99.90;;;;;;5182134;28;20509;-50
2021/12/11 02:03:35;;;;;;;152.53;40.97;;;0.80;99.90;;;;;;5180973;28;21013;-50
2021/12/11 02:06:06;;;;;;;127.87;38.77;;;0.70;99.90;;;;;;5177135;28;20450;-50
2021/12/11 02:08:40;;;;;;;106.37;34.50;;;0.70;99.90;;;;;;5191899;28;20467;-51
2021/12/11 02:11:19;;;;;;;129.90;38.07;;;0.70;99.90;;;;;;5177165;28;20436;-52
2021/12/11 02:13:55;;;;;;;92.60;35.30;;;0.70;99.90;;;;;;5183103;28;20443;-52
2021/12/11 02:16:43;;;;;;;172.70;42.77;;;0.80;99.90;;;;;;5187580;28;20836;-51
2021/12/11 02:19:30;;;;;;;131.97;42.33;;;0.70;99.90;;;;;;5179191;28;20482;-51
2021/12/11 02:22:00;;;;;;;199.33;49.77;;;0.70;99.90;;;;;;5185316;28;20425;-50
2021/12/11 02:24:42;;;;;;;96.00;34.37;;;0.80;99.90;;;;;;5186286;28;20775;-51
2021/12/11 02:27:27;;;;;;;102.50;38.10;;;0.70;99.90;;;;;;5183873;28;20687;-51
2021/12/11 02:30:07;;;;;;;170.47;45.70;;;0.60;99.90;;;;;;5184984;28;20520;-51
2021/12/11 02:32:44;;;;;;;149.67;44.93;;;0.60;99.90;;;;;;5185224;28;20443;-50
2021/12/11 02:35:21;;;;;;;169.37;49.57;;;0.50;99.90;;;;;;5179379;28;20443;-52
2021/12/11 02:37:57;;;;;;;89.63;35.27;;;0.40;99.90;;;;;;5183961;28;20447;-51
2021/12/11 02:40:40;;;;;;;154.53;44.10;;;0.50;99.90;;;;;;5192888;28;20477;-50
2021/12/11 02:43:22;;;;;;;124.20;42.63;;;0.50;99.90;;;;;;5180116;28;20446;-51
2021/12/11 02:46:17;;;;;;;141.07;43.83;;;0.40;99.90;;;;;;5179869;28;20450;-51
2021/12/11 02:48:53;;;;;;;200.83;49.50;;;0.40;99.90;;;;;;5184703;28;20558;-50
2021/12/11 02:51:28;;;;;;;167.73;48.97;;;0.40;99.90;;;;;;5183867;28;20442;-50
2021/12/11 02:54:24;;;;;;;183.80;50.13;;;0.50;99.90;;;;;;5182867;28;20798;-50
2021/12/11 02:57:06;;;;;;;144.97;40.80;;;0.40;99.90;;;;;;5178436;28;20444;-50
2021/12/11 02:59:42;;;;;;;168.97;43.23;;;0.50;99.90;;;;;;5183691;28;20446;-51
2021/12/11 03:02:19;;;;;;;101.10;35.47;;;0.60;99.90;;;;;;5186204;28;20501;-51
2021/12/11 03:04:56;;;;;;;157.37;45.47;;;0.60;99.90;;;;;;5195939;28;20442;-51
2021/12/11 03:07:37;;;;;;;125.00;39.30;;;0.60;99.90;;;;;;5161265;28;20914;-52
2021/12/11 03:10:12;;;;;;;108.97;37.83;;;0.60;99.90;;;;;;5184956;28;20455;-51
2021/12/11 03:12:44;;;;;;;149.03;44.40;;;0.50;99.90;;;;;;5185702;28;20418;-52
2021/12/11 03:15:17;;;;;;;129.20;43.43;;;0.50;99.90;;;;;;5183819;28;20462;-50
2021/12/11 03:17:48;;;;;;;102.37;36.50;;;0.40;99.90;;;;;;5183844;28;21271;-51
2021/12/11 03:20:21;;;;;;;209.87;52.93;;;0.40;99.90;;;;;;5185370;28;20593;-51
2021/12/11 03:22:52;;;;;;;151.57;41.63;;;0.50;99.90;;;;;;5180139;28;20427;-50
2021/12/11 03:25:26;;;;;;;154.73;43.80;;;0.50;99.90;;;;;;5177756;28;20447;-50
2021/12/11 03:27:58;;;;;;;211.27;53.63;;;0.60;99.90;;;;;;5183460;28;20199;-51
2021/12/11 03:30:32;;;;;;;196.53;49.67;;;0.50;99.90;;;;;;5183878;28;20813;-50
2021/12/11 03:33:11;;;;;;;133.83;42.83;;;0.60;99.90;;;;;;5186594;28;20508;-50
2021/12/11 03:35:42;;;;;;;191.87;51.87;;;0.60;99.90;;;;;;5184052;28;20455;-50
2021/12/11 03:38:13;;;;;;;198.63;52.63;;;0.60;99.90;;;;;;5183177;28;20431;-52
2021/12/11 03:40:45;;;;;;;192.00;51.33;;;0.60;99.90;;;;;;5181656;28;20449;-49
2021/12/11 03:43:19;;;;;;;199.30;55.73;;;0.60;99.90;;;;;;5180496;28;20427;-50
2021/12/11 03:45:53;;;;;;;174.00;51.23;;;0.60;99.90;;;;;;5183086;28;20475;-50
2021/12/11 03:48:37;;;;;;;125.57;44.30;;;0.70;99.90;;;;;;5175805;28;20562;-51
2021/12/11 03:51:11;;;;;;;120.37;41.10;;;0.70;99.90;;;;;;5185151;28;20461;-50
2021/12/11 03:53:41;;;;;;;134.83;46.77;;;0.70;99.90;;;;;;5183666;28;20486;-49
2021/12/11 03:56:15;;;;;;;231.53;61.00;;;0.80;99.90;;;;;;5190344;28;20514;-49
2021/12/11 03:58:51;;;;;;;174.37;55.27;;;0.70;99.90;;;;;;5152144;28;20222;-49
2021/12/11 04:01:50;;;;;;;200.17;55.17;;;0.70;99.90;;;;;;5177458;28;20517;-49
2021/12/11 04:04:31;;;;;;;138.00;44.80;;;0.70;99.90;;;;;;5182089;28;20443;-49
2021/12/11 04:07:05;;;;;;;105.63;37.47;;;0.70;99.90;;;;;;5178431;28;20443;-50
2021/12/11 04:09:35;;;;;;;87.33;41.27;;;0.80;99.90;;;;;;5177452;28;20483;-49
2021/12/11 04:12:08;;;;;;;114.47;43.17;;;0.80;99.90;;;;;;5180454;28;20501;-49
2021/12/11 04:14:43;;;;;;;119.20;39.83;;;0.90;99.90;;;;;;5187049;28;20215;-51
2021/12/11 04:17:18;;;;;;;93.47;34.33;;;0.80;99.90;;;;;;5186750;28;20903;-50
2021/12/11 04:19:51;;;;;;;137.10;40.60;;;0.80;99.90;;;;;;5182759;28;20469;-52
2021/12/11 04:22:22;;;;;;;89.07;31.97;;;0.80;99.90;;;;;;5183144;28;20441;-51
2021/12/11 04:24:55;;;;;;;99.17;33.07;;;0.80;99.90;;;;;;5173514;28;20444;-51
2021/12/11 04:27:25;;;;;;;130.47;40.40;;;0.80;99.90;;;;;;5168729;28;20438;-51
2021/12/11 04:29:56;;;;;;;106.63;36.30;;;0.70;99.90;;;;;;5198051;28;20537;-49
2021/12/11 04:32:29;;;;;;;103.07;37.57;;;0.60;99.90;;;;;;5179505;28;20602;-50
2021/12/11 04:35:01;;;;;;;86.60;32.07;;;0.60;99.90;;;;;;5184271;28;20246;-50
2021/12/11 04:37:33;;;;;;;97.20;34.10;;;0.70;99.90;;;;;;5186259;28;20903;-50
2021/12/11 04:40:16;;;;;;;82.60;32.50;;;0.70;99.90;;;;;;5183197;28;20475;-50
2021/12/11 04:42:56;;;;;;;84.57;33.90;;;0.70;99.90;;;;;;5185116;28;20454;-50
2021/12/11 04:46:04;;;;;;;102.63;33.90;;;0.70;99.90;;;;;;5181053;28;20786;-51
2021/12/11 04:51:45;;;;;;;96.50;33.50;;;0.80;99.90;;;;;;5169586;28;20439;-51
2021/12/11 04:58:02;;;;;;;108.77;34.47;;;0.80;99.90;;;;;;5182628;28;20443;-51
2021/12/11 05:00:55;;;;;;;96.63;33.27;;;0.80;99.90;;;;;;5170184;28;20485;-50
2021/12/11 05:09:17;;;;;;;72.27;30.77;;;0.90;99.90;;;;;;5172241;28;20525;-49
2021/12/11 05:12:17;;;;;;;99.67;35.13;;;0.90;99.90;;;;;;5184278;28;20431;-51
2021/12/11 05:14:47;;;;;;;94.83;32.30;;;0.90;99.90;;;;;;5185146;28;20510;-50
2021/12/11 05:17:18;;;;;;;95.37;34.80;;;0.90;99.90;;;;;;5181436;28;20518;-50
2021/12/11 05:19:49;;;;;;;90.77;33.60;;;1.10;99.90;;;;;;5184656;28;20216;-51
2021/12/11 05:22:21;;;;;;;86.63;32.23;;;1.00;99.90;;;;;;5183127;28;20283;-51
2021/12/11 05:24:55;;;;;;;88.53;34.10;;;0.90;99.90;;;;;;5179490;28;20463;-50
2021/12/11 05:27:26;;;;;;;70.83;29.10;;;0.80;99.90;;;;;;5186119;28;20463;-51
2021/12/11 05:29:57;;;;;;;79.60;29.90;;;0.80;99.90;;;;;;5185681;28;20840;-49
2021/12/11 05:32:28;;;;;;;75.57;30.43;;;0.80;99.90;;;;;;5179726;28;20439;-49
2021/12/11 05:34:59;;;;;;;84.00;30.50;;;0.80;99.90;;;;;;5186349;28;20570;-49
2021/12/11 05:37:29;;;;;;;99.13;34.53;;;0.90;99.90;;;;;;5184317;28;20188;-50
2021/12/11 05:40:00;;;;;;;80.40;31.13;;;0.90;99.90;;;;;;5187553;28;20510;-49
2021/12/11 05:42:31;;;;;;;105.40;36.50;;;0.90;99.90;;;;;;5183696;28;20181;-49
2021/12/11 05:45:04;;;;;;;89.80;33.80;;;0.90;99.90;;;;;;5182821;28;20434;-49
2021/12/11 05:47:35;;;;;;;82.50;33.57;;;0.90;99.90;;;;;;5192920;28;20231;-48
2021/12/11 05:50:10;;;;;;;75.73;31.60;;;0.80;99.90;;;;;;5176384;28;20490;-51
2021/12/11 05:52:41;;;;;;;87.43;31.57;;;0.80;99.90;;;;;;5178054;28;20802;-50
2021/12/11 05:55:16;;;;;;;78.23;31.63;;;0.80;99.90;;;;;;5181116;28;20444;-49
2021/12/11 05:57:53;;;;;;;85.97;31.37;;;0.80;99.90;;;;;;5182374;28;20438;-52
2021/12/11 06:00:33;;;;;;;87.97;33.13;;;0.80;99.90;;;;;;5183319;28;20545;-51
2021/12/11 06:03:05;;;;;;;87.13;34.10;;;0.70;99.90;;;;;;5177919;28;20429;-52
2021/12/11 06:05:36;;;;;;;83.63;35.13;;;0.60;99.90;;;;;;5186380;28;20776;-50
2021/12/11 06:08:10;;;;;;;99.70;35.43;;;0.60;99.90;;;;;;5180628;28;20475;-51
2021/12/11 06:10:40;;;;;;;88.53;33.23;;;0.60;99.90;;;;;;5185749;28;20186;-51
2021/12/11 06:13:11;;;;;;;90.77;33.10;;;0.60;99.90;;;;;;5177470;28;20452;-51
2021/12/11 06:15:42;;;;;;;92.80;33.27;;;0.60;99.90;;;;;;5185209;28;20188;-50
2021/12/11 06:18:17;;;;;;;99.53;35.90;;;0.60;99.90;;;;;;5184950;28;20670;-52
2021/12/11 06:20:49;;;;;;;102.63;36.93;;;0.50;99.90;;;;;;5190182;28;20194;-52
2021/12/11 06:23:22;;;;;;;101.20;36.67;;;0.50;99.90;;;;;;5185767;28;20441;-50
2021/12/11 06:25:55;;;;;;;102.00;34.70;;;0.50;99.90;;;;;;5181069;28;20442;-51
2021/12/11 06:28:27;;;;;;;105.13;36.20;;;0.50;99.90;;;;;;5179620;28;20495;-52
2021/12/11 06:30:58;;;;;;;85.87;33.07;;;0.50;99.90;;;;;;5178807;28;20439;-50
2021/12/11 06:33:31;;;;;;;89.50;35.53;;;0.50;99.90;;;;;;5180321;28;20948;-51
2021/12/11 06:36:06;;;;;;;96.20;34.13;;;0.40;99.90;;;;;;5196402;28;20219;-50
2021/12/11 06:38:39;;;;;;;89.40;32.83;;;0.40;99.90;;;;;;5186069;28;20902;-51
2021/12/11 06:41:13;;;;;;;87.37;33.23;;;0.40;99.90;;;;;;5179168;28;20947;-50
2021/12/11 06:43:44;;;;;;;96.50;36.30;;;0.40;99.90;;;;;;5183552;28;20431;-51
2021/12/11 06:46:15;;;;;;;83.53;32.17;;;0.50;99.90;;;;;;5178166;28;20796;-50
2021/12/11 06:48:46;;;;;;;102.73;36.17;;;0.40;99.90;;;;;;5166136;28;20294;-51
2021/12/11 06:51:16;;;;;;;73.20;31.80;;;0.40;99.90;;;;;;5182692;28;20483;-52
2021/12/11 06:53:51;;;;;;;80.10;29.33;;;0.40;99.90;;;;;;5175741;28;20257;-51
2021/12/11 06:56:22;;;;;;;92.50;32.43;;;0.50;99.90;;;;;;5175767;28;20195;-50
2021/12/11 06:58:54;;;;;;;95.27;33.47;;;0.60;99.90;;;;;;5183084;28;20474;-51
2021/12/11 07:01:26;;;;;;;87.00;32.13;;;0.60;99.90;;;;;;5184235;28;20528;-50
2021/12/11 07:03:59;;;;;;;87.20;33.37;;;0.60;99.90;;;;;;5185793;28;21024;-51
2021/12/11 07:06:31;;;;;;;88.77;33.47;;;0.80;99.90;;;;;;5185588;28;20447;-50
2021/12/11 07:09:04;;;;;;;73.83;28.33;;;0.80;99.90;;;;;;5180985;28;20534;-50
2021/12/11 07:11:39;;;;;;;72.63;29.80;;;0.80;99.90;;;;;;5185280;28;20423;-51
2021/12/11 07:14:10;;;;;;;71.50;28.87;;;0.90;99.90;;;;;;5179382;28;20815;-51
2021/12/11 07:16:41;;;;;;;70.97;28.33;;;0.90;99.90;;;;;;5178808;28;20432;-51
2021/12/11 07:19:13;;;;;;;66.03;28.73;;;0.80;99.90;;;;;;5176468;28;20451;-52
2021/12/11 07:21:46;;;;;;;71.17;29.17;;;0.80;99.90;;;;;;5182737;28;20530;-50
2021/12/11 07:24:21;;;;;;;79.43;29.80;;;0.80;99.90;;;;;;5186495;28;20446;-51
2021/12/11 07:26:52;;;;;;;91.53;29.53;;;0.90;99.90;;;;;;5202283;28;20427;-51
2021/12/11 07:29:23;;;;;;;106.37;34.50;;;1.00;99.90;;;;;;5183547;28;20481;-51
2021/12/11 07:31:53;;;;;;;83.03;30.17;;;1.00;99.90;;;;;;5182628;28;20672;-51
2021/12/11 07:34:24;;;;;;;78.60;31.87;;;1.00;99.90;;;;;;5180785;28;20189;-51
2021/12/11 07:36:55;;;;;;;91.00;31.90;;;1.20;99.90;;;;;;5187437;28;20594;-52
2021/12/11 07:39:26;;;;;;;67.63;28.03;;;1.10;99.90;;;;;;5185485;28;20220;-52
2021/12/11 07:41:58;;;;;;;78.43;29.23;;;1.20;99.90;;;;;;5201894;28;20925;-52
2021/12/11 07:44:29;;;;;;;67.20;28.37;;;1.20;99.90;;;;;;5188050;28;20196;-50
2021/12/11 07:47:00;;;;;;;92.00;32.70;;;1.20;99.90;;;;;;5185574;28;20838;-51
2021/12/11 07:49:31;;;;;;;71.83;30.70;;;1.20;99.90;;;;;;5177386;28;20216;-51
2021/12/11 07:52:02;;;;;;;86.97;32.60;;;1.20;99.90;;;;;;5178383;28;20454;-51
2021/12/11 07:54:33;;;;;;;89.13;32.93;;;1.40;99.90;;;;;;5185766;28;20638;-52
2021/12/11 07:57:04;;;;;;;84.87;30.73;;;1.40;99.90;;;;;;5183635;28;20430;-51
2021/12/11 07:59:34;;;;;;;56.53;26.53;;;1.40;99.90;;;;;;5176876;28;20219;-52
2021/12/11 08:02:05;;;;;;;71.07;29.90;;;1.40;99.90;;;;;;5186140;28;20331;-51
2021/12/11 08:04:35;;;;;;;62.87;28.17;;;1.40;99.90;;;;;;5198935;28;20185;-51
2021/12/11 08:07:06;;;;;;;56.80;26.83;;;1.40;99.90;;;;;;5185750;28;20692;-53
2021/12/11 08:09:37;;;;;;;51.60;23.77;;;1.50;99.90;;;;;;5189516;28;20267;-51
2021/12/11 08:12:08;;;;;;;45.20;22.47;;;1.50;99.90;;;;;;5187491;28;20549;-51
2021/12/11 08:14:39;;;;;;;52.70;23.93;;;1.50;99.90;;;;;;5182843;28;20432;-51
2021/12/11 08:17:10;;;;;;;54.53;25.13;;;1.60;99.90;;;;;;5178218;28;20606;-51
2021/12/11 08:19:41;;;;;;;64.17;25.63;;;1.60;99.90;;;;;;5199673;28;20200;-52
2021/12/11 08:22:12;;;;;;;53.03;25.37;;;1.70;99.90;;;;;;5179024;28;20773;-52
2021/12/11 08:24:42;;;;;;;60.87;27.90;;;1.70;99.90;;;;;;5185238;28;20196;-52
2021/12/11 08:27:17;;;;;;;62.67;26.90;;;1.70;99.90;;;;;;5187221;28;20423;-52
2021/12/11 08:29:50;;;;;;;69.23;25.77;;;1.70;99.90;;;;;;5183988;28;20224;-51
2021/12/11 08:32:23;;;;;;;67.20;27.90;;;1.70;99.90;;;;;;5181818;28;20434;-53
2021/12/11 08:34:54;;;;;;;77.40;27.90;;;1.60;99.90;;;;;;5181073;28;21022;-51
2021/12/11 08:37:26;;;;;;;78.50;30.60;;;1.60;99.90;;;;;;5177715;28;20554;-52
2021/12/11 08:39:57;;;;;;;64.93;25.47;;;1.50;99.90;;;;;;5185395;28;20478;-53
2021/12/11 08:42:28;;;;;;;71.10;24.47;;;1.50;99.90;;;;;;5180341;28;20457;-51
2021/12/11 08:45:05;;;;;;;59.07;23.63;;;1.60;99.90;;;;;;5164335;28;20811;-51
2021/12/11 08:47:40;;;;;;;64.17;24.27;;;1.60;99.90;;;;;;5180187;28;20205;-52
2021/12/11 08:50:16;;;;;;;71.00;25.37;;;1.60;99.90;;;;;;5184770;28;21025;-52
2021/12/11 08:52:49;;;;;;;63.13;25.03;;;1.70;99.90;;;;;;5181694;28;20450;-51
2021/12/11 08:55:30;;;;;;;58.93;25.30;;;1.70;99.90;;;;;;5184114;28;20482;-51
2021/12/11 08:58:00;;;;;;;62.30;25.23;;;1.60;99.90;;;;;;5179601;28;20537;-52
2021/12/11 09:00:55;;;;;;;53.20;20.00;;;1.60;99.90;;;;;;5162148;28;20550;-51
2021/12/11 09:03:35;;;;;;;44.57;20.03;;;1.60;99.90;;;;;;5176504;28;20181;-52
2021/12/11 09:06:11;;;;;;;42.43;20.17;;;1.60;99.90;;;;;;5193206;28;20436;-51
2021/12/11 09:08:52;;;;;;;54.60;21.60;;;1.50;99.90;;;;;;5178253;28;20590;-52
2021/12/11 09:11:48;;;;;;;42.20;20.37;;;1.60;99.90;;;;;;5184411;28;20903;-52
2021/12/11 09:14:23;;;;;;;47.03;20.90;;;1.50;99.90;;;;;;5185065;28;20411;-51
2021/12/11 09:17:09;;;;;;;42.73;20.50;;;1.60;99.90;;;;;;5182799;28;20430;-52
2021/12/11 09:19:47;;;;;;;44.00;19.20;;;1.70;99.90;;;;;;5171662;28;20456;-51
2021/12/11 09:22:44;;;;;;;35.97;17.97;;;1.50;99.90;;;;;;5178209;28;20463;-51
2021/12/11 09:25:20;;;;;;;41.43;18.70;;;1.50;99.90;;;;;;5177295;28;20449;-52
2021/12/11 09:28:16;;;;;;;36.70;18.03;;;1.40;99.90;;;;;;5181801;28;20469;-53
2021/12/11 09:31:17;;;;;;;40.20;17.47;;;1.50;99.90;;;;;;5175561;28;20811;-51
2021/12/11 09:33:55;;;;;;;42.77;18.67;;;1.50;99.90;;;;;;5182440;28;20423;-50
2021/12/11 09:36:30;;;;;;;39.43;18.90;;;1.60;99.90;;;;;;5182186;28;20435;-52
2021/12/11 09:41:36;;;;;;;30.70;15.53;;;1.60;99.90;;;;;;5192927;28;20654;-53
2021/12/11 09:44:24;;;;;;;40.40;17.93;;;1.80;99.90;;;;;;5200700;28;20838;-54
2021/12/11 09:47:00;;;;;;;34.67;16.67;;;1.70;99.90;;;;;;5196583;28;20434;-50
2021/12/11 09:49:39;;;;;;;35.10;16.57;;;1.70;99.90;;;;;;5192414;28;21007;-52
2021/12/11 09:52:23;;;;;;;33.20;16.33;;;1.70;99.90;;;;;;5205035;28;20560;-53
2021/12/11 09:55:06;;;;;;;29.90;16.07;;;1.70;99.90;;;;;;5201659;28;20503;-51
2021/12/11 09:57:42;;;;;;;43.07;17.67;;;1.60;99.90;;;;;;5201635;28;20423;-51
2021/12/11 10:00:20;;;;;;;31.70;15.80;;;1.70;99.90;;;;;;5198838;28;20468;-53
2021/12/11 10:02:50;;;;;;;35.30;17.27;;;1.70;99.90;;;;;;5203550;28;20574;-51
2021/12/11 10:05:36;;;;;;;30.70;16.60;;;1.80;99.90;;;;;;5203811;28;20473;-52
2021/12/11 10:08:31;;;;;;;32.37;15.07;;;1.60;99.90;;;;;;5203634;28;20184;-53
2021/12/11 10:11:16;;;;;;;30.67;14.73;;;1.50;99.90;;;;;;5202986;28;20458;-51
2021/12/11 10:13:57;;;;;;;29.10;14.10;;;1.40;99.90;;;;;;5202280;28;20439;-50
2021/12/11 10:16:33;;;;;;;34.83;15.53;;;1.30;99.90;;;;;;5205347;28;20430;-50
2021/12/11 10:19:06;;;;;;;26.77;14.30;;;1.40;99.90;;;;;;5201974;28;20441;-51
2021/12/11 10:21:44;;;;;;;26.47;14.87;;;1.50;99.90;;;;;;5201991;28;20473;-52
2021/12/11 10:24:19;;;;;;;35.50;14.53;;;1.60;99.90;;;;;;5203653;28;20442;-52
2021/12/11 10:26:52;;;;;;;32.03;14.97;;;1.70;99.90;;;;;;5193750;28;20813;-53
2021/12/11 10:29:23;;;;;;;37.63;14.07;;;1.90;99.90;;;;;;5196610;28;20553;-51
2021/12/11 10:32:02;;;;;;;36.13;16.53;;;2.10;99.90;;;;;;5203086;28;20529;-50
2021/12/11 10:34:35;;;;;;;25.23;13.47;;;2.20;99.90;;;;;;5201880;28;20238;-51
2021/12/11 10:37:13;;;;;;;31.07;15.80;;;2.40;99.90;;;;;;5206803;28;20426;-51
2021/12/11 10:39:51;;;;;;;30.27;15.50;;;2.50;99.90;;;;;;5202942;28;20474;-51
2021/12/11 10:42:22;;;;;;;30.60;15.43;;;2.50;99.90;;;;;;5199386;28;20446;-50
2021/12/11 10:44:58;;;;;;;27.67;13.73;;;2.50;99.90;;;;;;5205112;28;20429;-51
2021/12/11 10:47:33;;;;;;;23.47;12.90;;;2.50;99.90;;;;;;5202655;28;20193;-52
2021/12/11 10:50:09;;;;;;;27.03;13.33;;;2.30;99.90;;;;;;5199466;28;20476;-52
2021/12/11 10:52:40;;;;;;;24.93;13.07;;;2.40;99.90;;;;;;5202728;28;20463;-52
2021/12/11 10:55:15;;;;;;;27.90;13.43;;;2.30;99.90;;;;;;5203251;28;20434;-52
2021/12/11 10:57:46;;;;;;;27.90;14.23;;;2.30;99.90;;;;;;5217773;28;20636;-52
2021/12/11 11:00:27;;;;;;;23.23;13.07;;;2.40;99.90;;;;;;5198055;28;20979;-53
2021/12/11 11:02:58;;;;;;;27.40;14.23;;;2.20;99.90;;;;;;5198355;28;20415;-50
2021/12/11 11:05:29;;;;;;;27.17;13.40;;;1.90;99.90;;;;;;5206657;28;20437;-51
2021/12/11 11:08:02;;;;;;;26.07;14.20;;;2.00;99.90;;;;;;5203955;28;20274;-51
2021/12/11 11:10:43;;;;;;;30.77;16.47;;;1.90;99.90;;;;;;5206349;28;20454;-51
2021/12/11 11:13:15;;;;;;;23.77;12.77;;;2.00;99.90;;;;;;5205039;28;20435;-51
2021/12/11 11:15:47;;;;;;;30.80;15.70;;;2.10;99.90;;;;;;5203585;28;20443;-51
2021/12/11 11:18:20;;;;;;;30.20;15.70;;;2.10;99.90;;;;;;5203532;28;20502;-52
2021/12/11 11:21:19;;;;;;;23.43;12.43;;;2.20;99.90;;;;;;5198277;28;20461;-52
2021/12/11 11:23:50;;;;;;;33.87;15.70;;;2.40;99.90;;;;;;5204710;28;20442;-51
2021/12/11 11:26:30;;;;;;;31.47;16.20;;;2.30;99.90;;;;;;5205753;28;20446;-51
2021/12/11 11:29:04;;;;;;;28.90;16.40;;;2.30;99.90;;;;;;5197655;28;20235;-52
2021/12/11 11:31:39;;;;;;;28.67;14.83;;;2.20;99.90;;;;;;5201434;28;20515;-51
2021/12/11 11:34:13;;;;;;;26.23;14.67;;;2.20;99.90;;;;;;5202453;28;20442;-51
2021/12/11 11:36:45;;;;;;;31.30;15.97;;;2.30;99.90;;;;;;5203944;28;20438;-50
2021/12/11 11:39:20;;;;;;;24.23;13.03;;;2.20;99.90;;;;;;5207512;22;20445;-51
2021/12/11 11:41:54;;;;;;;29.90;13.80;;;2.30;99.90;;;;;;5178053;28;20443;-52
2021/12/11 11:44:27;;;;;;;29.20;13.93;;;2.40;99.90;;;;;;5183911;28;20437;-52
2021/12/11 11:47:01;;;;;;;27.90;15.00;;;2.50;99.90;;;;;;5178906;28;20428;-51
2021/12/11 11:49:34;;;;;;;30.83;15.27;;;2.70;99.90;;;;;;5173480;28;20478;-54
2021/12/11 11:52:11;;;;;;;30.23;13.90;;;2.70;99.90;;;;;;5180811;28;20432;-53
2021/12/11 11:54:45;;;;;;;33.30;17.70;;;2.80;99.90;;;;;;5182386;28;20426;-53
2021/12/11 11:57:24;;;;;;;36.13;18.10;;;2.90;99.90;;;;;;5182932;28;20629;-51
2021/12/11 11:59:57;;;;;;;33.50;15.23;;;3.00;99.90;;;;;;5184892;28;20460;-51
2021/12/11 12:02:31;;;;;;;31.77;15.87;;;3.00;99.90;;;;;;5177408;28;20439;-53
2021/12/11 12:05:05;;;;;;;34.40;16.17;;;2.90;99.90;;;;;;5184982;28;20465;-53
2021/12/11 12:07:36;;;;;;;31.00;14.97;;;3.00;99.90;;;;;;5182575;28;20435;-54
2021/12/11 12:10:20;;;;;;;26.30;15.07;;;3.00;99.90;;;;;;5182278;28;20529;-52
2021/12/11 12:12:51;;;;;;;25.90;12.70;;;3.10;99.90;;;;;;5172718;28;20232;-53
2021/12/11 12:15:27;;;;;;;25.43;16.10;;;3.20;99.90;;;;;;5185389;28;20472;-52
2021/12/11 12:17:58;;;;;;;27.10;16.07;;;3.20;99.90;;;;;;5178958;28;20219;-51
2021/12/11 12:20:29;;;;;;;26.93;14.40;;;3.10;99.90;;;;;;5174841;28;20451;-53
2021/12/11 12:22:59;;;;;;;22.80;12.83;;;3.00;99.90;;;;;;5179959;28;20970;-53
2021/12/11 12:25:30;;;;;;;26.27;12.33;;;2.90;99.90;;;;;;5182124;28;20196;-54
2021/12/11 12:28:01;;;;;;;24.20;12.10;;;2.90;99.90;;;;;;5184099;28;20180;-52
2021/12/11 12:30:38;;;;;;;24.47;13.80;;;3.00;99.90;;;;;;5184654;28;20227;-53
2021/12/11 12:33:10;;;;;;;23.90;14.40;;;2.90;99.90;;;;;;5200346;28;20427;-52
2021/12/11 12:35:41;;;;;;;17.77;12.80;;;2.70;99.90;;;;;;5184725;28;20443;-52
2021/12/11 12:38:14;;;;;;;19.53;12.40;;;2.40;99.90;;;;;;5178303;28;20451;-52
2021/12/11 12:41:12;;;;;;;18.80;11.33;;;2.40;99.90;;;;;;5172884;28;21046;-54
2021/12/11 12:44:16;;;;;;;26.03;13.10;;;2.50;99.90;;;;;;5171140;28;20522;-57
2021/12/11 12:47:17;;;;;;;26.37;12.50;;;2.50;99.90;;;;;;5183969;28;20446;-53
2021/12/11 12:49:51;;;;;;;23.57;14.10;;;2.30;99.90;;;;;;5172489;28;20886;-53
2021/12/11 12:52:30;;;;;;;24.33;13.60;;;2.20;99.90;;;;;;5184563;28;20481;-52
2021/12/11 12:55:08;;;;;;;22.90;13.70;;;2.30;99.90;;;;;;5182550;28;20570;-53
2021/12/11 12:57:42;;;;;;;26.13;14.17;;;2.50;99.90;;;;;;5177994;28;20430;-52
2021/12/11 13:00:24;;;;;;;32.60;15.10;;;2.40;99.90;;;;;;5179532;28;20470;-53
2021/12/11 13:03:03;;;;;;;23.97;13.33;;;2.50;99.90;;;;;;5174429;28;20500;-53
2021/12/11 13:05:41;;;;;;;27.40;15.30;;;2.40;99.90;;;;;;5183403;28;20895;-53
2021/12/11 13:08:20;;;;;;;30.17;14.47;;;2.50;99.90;;;;;;5176097;28;20443;-52
2021/12/11 13:10:55;;;;;;;32.17;14.27;;;2.50;99.90;;;;;;5172158;28;20477;-53
2021/12/11 13:13:27;;;;;;;24.77;15.50;;;2.40;99.90;;;;;;5186797;28;20529;-53
2021/12/11 13:16:10;;;;;;;26.90;12.90;;;2.50;99.90;;;;;;5173432;28;20436;-54
2021/12/11 13:18:45;;;;;;;31.10;15.80;;;2.50;99.90;;;;;;5172771;28;20473;-54
2021/12/11 13:21:45;;;;;;;22.90;13.50;;;2.50;99.90;;;;;;5169102;28;22453;-51
2021/12/11 13:24:16;;;;;;;30.30;15.53;;;2.20;99.90;;;;;;5179206;28;20510;-52
2021/12/11 13:26:53;;;;;;;32.97;17.03;;;2.30;99.90;;;;;;5181006;28;20497;-52
2021/12/11 13:29:28;;;;;;;26.67;13.63;;;2.20;99.90;;;;;;5179184;28;20475;-53
2021/12/11 13:32:17;;;;;;;28.73;14.90;;;2.30;99.90;;;;;;5177492;28;20454;-52